sensor_id;sensor_type;location;lat;lon;timestamp;temperature;humidity
25436;DHT22;13363;52.772;-3.890;2022-10-16T08:25:51;10.00;99.90
25436;DHT22;13363;52.772;-3.890;2022-10-16T08:28:18;10.30;99.90
25436;DHT22;13363;52.772;-3.890;2022-10-16T08:33:11;10.80;99.90
25436;DHT22;13363;52.772;-3.890;2022-10-16T08:35:36;11.10;99.90
25436;DHT22;13363;52.772;-3.890;2022-10-16T08:38:06;11.50;99.90
25436;DHT22;13363;52.772;-3.890;2022-10-16T08:40:33;12.20;99.90
25436;DHT22;13363;52.772;-3.890;2022-10-16T08:48:49;14.10;99.90
25436;DHT22;13363;52.772;-3.890;2022-10-16T08:54:01;15.40;99.90
25436;DHT22;13363;52.772;-3.890;2022-10-16T08:56:28;16.40;99.90
25436;DHT22;13363;52.772;-3.890;2022-10-16T08:58:54;17.30;99.90
25436;DHT22;13363;52.772;-3.890;2022-10-16T09:01:35;17.80;99.90
25436;DHT22;13363;52.772;-3.890;2022-10-16T09:09:46;18.60;99.90
25436;DHT22;13363;52.772;-3.890;2022-10-16T09:12:33;18.70;99.90
25436;DHT22;13363;52.772;-3.890;2022-10-16T09:26:33;21.00;99.90
25436;DHT22;13363;52.772;-3.890;2022-10-16T09:28:59;20.90;99.90
25436;DHT22;13363;52.772;-3.890;2022-10-16T09:31:25;20.80;99.90
25436;DHT22;13363;52.772;-3.890;2022-10-16T09:33:59;21.00;99.90
25436;DHT22;13363;52.772;-3.890;2022-10-16T09:36:27;21.10;99.90
25436;DHT22;13363;52.772;-3.890;2022-10-16T09:39:06;21.00;99.90
25436;DHT22;13363;52.772;-3.890;2022-10-16T09:41:35;21.00;99.90
25436;DHT22;13363;52.772;-3.890;2022-10-16T09:44:04;20.70;99.90
25436;DHT22;13363;52.772;-3.890;2022-10-16T09:46:34;20.00;99.90
25436;DHT22;13363;52.772;-3.890;2022-10-16T09:49:03;20.00;99.90
25436;DHT22;13363;52.772;-3.890;2022-10-16T09:51:32;19.20;99.90
25436;DHT22;13363;52.772;-3.890;2022-10-16T09:57:21;18.80;99.90
25436;DHT22;13363;52.772;-3.890;2022-10-16T09:59:48;19.10;99.90
25436;DHT22;13363;52.772;-3.890;2022-10-16T10:02:17;18.80;99.90
25436;DHT22;13363;52.772;-3.890;2022-10-16T10:05:19;18.60;99.90
25436;DHT22;13363;52.772;-3.890;2022-10-16T10:07:46;18.70;99.90
25436;DHT22;13363;52.772;-3.890;2022-10-16T10:10:33;19.20;99.90
25436;DHT22;13363;52.772;-3.890;2022-10-16T10:12:59;19.30;99.90
25436;DHT22;13363;52.772;-3.890;2022-10-16T10:15:29;19.10;99.90
25436;DHT22;13363;52.772;-3.890;2022-10-16T10:17:58;18.90;99.90
25436;DHT22;13363;52.772;-3.890;2022-10-16T10:20:29;18.30;99.90
25436;DHT22;13363;52.772;-3.890;2022-10-16T10:22:58;18.00;99.90
25436;DHT22;13363;52.772;-3.890;2022-10-16T10:25:45;17.40;99.90
25436;DHT22;13363;52.772;-3.890;2022-10-16T10:28:24;17.20;99.90
25436;DHT22;13363;52.772;-3.890;2022-10-16T10:31:17;17.40;99.90
25436;DHT22;13363;52.772;-3.890;2022-10-16T10:49:44;16.90;99.90
25436;DHT22;13363;52.772;-3.890;2022-10-16T11:11:53;16.50;99.90
25436;DHT22;13363;52.772;-3.890;2022-10-16T11:17:13;16.50;99.90
25436;DHT22;13363;52.772;-3.890;2022-10-16T11:27:43;16.20;99.90
25436;DHT22;13363;52.772;-3.890;2022-10-16T11:30:23;16.20;99.90
25436;DHT22;13363;52.772;-3.890;2022-10-16T11:38:33;16.00;99.90
25436;DHT22;13363;52.772;-3.890;2022-10-16T11:47:25;15.90;99.90
25436;DHT22;13363;52.772;-3.890;2022-10-16T11:49:58;15.70;99.90
25436;DHT22;13363;52.772;-3.890;2022-10-16T11:57:59;15.30;99.90
25436;DHT22;13363;52.772;-3.890;2022-10-16T12:06:22;15.20;99.90
25436;DHT22;13363;52.772;-3.890;2022-10-16T12:08:51;15.10;99.90
25436;DHT22;13363;52.772;-3.890;2022-10-16T12:11:35;15.10;99.90
25436;DHT22;13363;52.772;-3.890;2022-10-16T12:16:52;15.10;99.90
25436;DHT22;13363;52.772;-3.890;2022-10-16T12:19:19;15.10;99.90
25436;DHT22;13363;52.772;-3.890;2022-10-16T12:21:45;15.10;99.90
25436;DHT22;13363;52.772;-3.890;2022-10-16T12:24:33;15.10;99.90
25436;DHT22;13363;52.772;-3.890;2022-10-16T12:27:00;15.10;99.90
25436;DHT22;13363;52.772;-3.890;2022-10-16T12:29:33;15.10;99.90
25436;DHT22;13363;52.772;-3.890;2022-10-16T12:32:01;15.20;99.90
25436;DHT22;13363;52.772;-3.890;2022-10-16T12:34:43;15.20;99.90
25436;DHT22;13363;52.772;-3.890;2022-10-16T12:37:26;15.20;99.90
25436;DHT22;13363;52.772;-3.890;2022-10-16T12:39:53;15.20;99.90
25436;DHT22;13363;52.772;-3.890;2022-10-16T12:44:52;15.20;99.90
25436;DHT22;13363;52.772;-3.890;2022-10-16T12:49:57;15.30;99.90
25436;DHT22;13363;52.772;-3.890;2022-10-16T12:52:37;15.30;99.90
25436;DHT22;13363;52.772;-3.890;2022-10-16T12:55:05;15.20;99.90
25436;DHT22;13363;52.772;-3.890;2022-10-16T13:16:49;14.90;99.90
25436;DHT22;13363;52.772;-3.890;2022-10-16T13:21:58;15.00;99.90
25436;DHT22;13363;52.772;-3.890;2022-10-16T13:29:53;15.30;99.90
25436;DHT22;13363;52.772;-3.890;2022-10-16T13:32:21;15.40;99.90
25436;DHT22;13363;52.772;-3.890;2022-10-16T13:38:11;15.50;99.90
25436;DHT22;13363;52.772;-3.890;2022-10-16T13:40:58;15.60;99.90
25436;DHT22;13363;52.772;-3.890;2022-10-16T13:43:39;15.70;99.90
25436;DHT22;13363;52.772;-3.890;2022-10-16T13:46:18;15.80;99.90
25436;DHT22;13363;52.772;-3.890;2022-10-16T13:48:56;15.80;99.90
25436;DHT22;13363;52.772;-3.890;2022-10-16T13:51:23;15.80;99.90
25436;DHT22;13363;52.772;-3.890;2022-10-16T13:53:49;15.90;99.90
25436;DHT22;13363;52.772;-3.890;2022-10-16T13:56:20;16.10;99.90
25436;DHT22;13363;52.772;-3.890;2022-10-16T13:59:04;16.20;99.90
25436;DHT22;13363;52.772;-3.890;2022-10-16T14:01:44;16.30;99.90
25436;DHT22;13363;52.772;-3.890;2022-10-16T14:04:12;16.60;99.90
25436;DHT22;13363;52.772;-3.890;2022-10-16T14:10:05;16.70;99.90
25436;DHT22;13363;52.772;-3.890;2022-10-16T14:12:31;16.60;99.90
25436;DHT22;13363;52.772;-3.890;2022-10-16T14:14:58;16.40;99.90
25436;DHT22;13363;52.772;-3.890;2022-10-16T14:17:25;16.30;99.90
25436;DHT22;13363;52.772;-3.890;2022-10-16T14:19:55;16.00;99.90
25436;DHT22;13363;52.772;-3.890;2022-10-16T14:22:35;16.00;99.90
25436;DHT22;13363;52.772;-3.890;2022-10-16T14:25:18;15.90;99.90
25436;DHT22;13363;52.772;-3.890;2022-10-16T14:28:03;15.90;99.90
25436;DHT22;13363;52.772;-3.890;2022-10-16T14:30:31;16.00;99.90
25436;DHT22;13363;52.772;-3.890;2022-10-16T14:32:59;16.00;99.90
25436;DHT22;13363;52.772;-3.890;2022-10-16T14:35:32;16.00;99.90
25436;DHT22;13363;52.772;-3.890;2022-10-16T14:38:00;15.90;99.90
25436;DHT22;13363;52.772;-3.890;2022-10-16T14:40:31;16.00;99.90
25436;DHT22;13363;52.772;-3.890;2022-10-16T14:42:58;16.10;99.90
25436;DHT22;13363;52.772;-3.890;2022-10-16T14:45:30;16.20;99.90
25436;DHT22;13363;52.772;-3.890;2022-10-16T14:48:01;16.10;99.90
25436;DHT22;13363;52.772;-3.890;2022-10-16T14:50:28;15.90;99.90
25436;DHT22;13363;52.772;-3.890;2022-10-16T14:52:54;15.80;99.90
25436;DHT22;13363;52.772;-3.890;2022-10-16T14:55:20;15.70;99.90
25436;DHT22;13363;52.772;-3.890;2022-10-16T14:57:47;15.60;99.90
25436;DHT22;13363;52.772;-3.890;2022-10-16T15:00:22;15.60;99.90
25436;DHT22;13363;52.772;-3.890;2022-10-16T15:02:49;15.70;99.90
25436;DHT22;13363;52.772;-3.890;2022-10-16T15:05:24;15.70;99.90
25436;DHT22;13363;52.772;-3.890;2022-10-16T15:07:52;15.80;99.90
25436;DHT22;13363;52.772;-3.890;2022-10-16T15:10:20;15.80;99.90
25436;DHT22;13363;52.772;-3.890;2022-10-16T15:12:47;15.90;99.90
25436;DHT22;13363;52.772;-3.890;2022-10-16T15:17:52;15.90;99.90
25436;DHT22;13363;52.772;-3.890;2022-10-16T15:20:19;15.80;99.90
25436;DHT22;13363;52.772;-3.890;2022-10-16T15:22:45;15.80;99.90
25436;DHT22;13363;52.772;-3.890;2022-10-16T15:25:38;15.70;99.90
25436;DHT22;13363;52.772;-3.890;2022-10-16T15:28:09;15.70;99.90
25436;DHT22;13363;52.772;-3.890;2022-10-16T15:30:36;15.60;99.90
25436;DHT22;13363;52.772;-3.890;2022-10-16T15:33:03;15.60;99.90
25436;DHT22;13363;52.772;-3.890;2022-10-16T15:35:29;15.50;99.90
25436;DHT22;13363;52.772;-3.890;2022-10-16T15:37:55;15.40;99.90
25436;DHT22;13363;52.772;-3.890;2022-10-16T15:40:21;15.30;99.90
25436;DHT22;13363;52.772;-3.890;2022-10-16T15:42:48;15.30;99.90
25436;DHT22;13363;52.772;-3.890;2022-10-16T15:45:14;15.20;99.90
25436;DHT22;13363;52.772;-3.890;2022-10-16T15:47:43;15.20;99.90
25436;DHT22;13363;52.772;-3.890;2022-10-16T15:50:11;15.20;99.90
25436;DHT22;13363;52.772;-3.890;2022-10-16T15:52:37;15.20;99.90
25436;DHT22;13363;52.772;-3.890;2022-10-16T15:55:06;15.10;99.90
25436;DHT22;13363;52.772;-3.890;2022-10-16T15:57:32;15.10;99.90
25436;DHT22;13363;52.772;-3.890;2022-10-16T15:59:58;15.10;99.90
25436;DHT22;13363;52.772;-3.890;2022-10-16T16:02:24;15.10;99.90
25436;DHT22;13363;52.772;-3.890;2022-10-16T16:04:49;15.00;99.90
25436;DHT22;13363;52.772;-3.890;2022-10-16T16:07:15;15.00;99.90
25436;DHT22;13363;52.772;-3.890;2022-10-16T16:09:41;15.00;99.90
25436;DHT22;13363;52.772;-3.890;2022-10-16T16:12:07;15.00;99.90
25436;DHT22;13363;52.772;-3.890;2022-10-16T16:14:33;15.00;99.90
25436;DHT22;13363;52.772;-3.890;2022-10-16T16:16:59;15.00;99.90
25436;DHT22;13363;52.772;-3.890;2022-10-16T16:19:25;14.90;99.90
25436;DHT22;13363;52.772;-3.890;2022-10-16T16:21:50;14.90;99.90
25436;DHT22;13363;52.772;-3.890;2022-10-16T16:24:16;15.00;99.90
25436;DHT22;13363;52.772;-3.890;2022-10-16T16:26:42;14.90;99.90
25436;DHT22;13363;52.772;-3.890;2022-10-16T16:29:13;14.90;99.90
25436;DHT22;13363;52.772;-3.890;2022-10-16T16:31:40;14.90;99.90
25436;DHT22;13363;52.772;-3.890;2022-10-16T16:34:06;14.80;99.90
25436;DHT22;13363;52.772;-3.890;2022-10-16T16:36:33;14.80;99.90
25436;DHT22;13363;52.772;-3.890;2022-10-16T16:38:59;14.70;99.90
25436;DHT22;13363;52.772;-3.890;2022-10-16T16:41:29;14.70;99.90
25436;DHT22;13363;52.772;-3.890;2022-10-16T16:43:55;14.80;99.90
25436;DHT22;13363;52.772;-3.890;2022-10-16T16:46:26;14.90;99.90
25436;DHT22;13363;52.772;-3.890;2022-10-16T16:48:52;14.90;99.90
25436;DHT22;13363;52.772;-3.890;2022-10-16T16:51:21;15.00;99.90
25436;DHT22;13363;52.772;-3.890;2022-10-16T16:53:50;14.90;99.90
25436;DHT22;13363;52.772;-3.890;2022-10-16T16:56:16;14.90;99.90
25436;DHT22;13363;52.772;-3.890;2022-10-16T16:58:46;15.00;99.90
25436;DHT22;13363;52.772;-3.890;2022-10-16T17:01:12;14.90;99.90
25436;DHT22;13363;52.772;-3.890;2022-10-16T17:03:41;14.80;99.90
25436;DHT22;13363;52.772;-3.890;2022-10-16T17:06:08;14.70;99.90
25436;DHT22;13363;52.772;-3.890;2022-10-16T17:08:35;14.70;99.90
25436;DHT22;13363;52.772;-3.890;2022-10-16T17:11:02;14.60;99.90
25436;DHT22;13363;52.772;-3.890;2022-10-16T17:13:32;14.60;99.90
25436;DHT22;13363;52.772;-3.890;2022-10-16T17:16:00;14.50;99.90
25436;DHT22;13363;52.772;-3.890;2022-10-16T17:18:26;14.40;99.90
25436;DHT22;13363;52.772;-3.890;2022-10-16T17:20:52;14.40;99.90
25436;DHT22;13363;52.772;-3.890;2022-10-16T17:23:19;14.40;99.90
25436;DHT22;13363;52.772;-3.890;2022-10-16T17:25:45;14.50;99.90
25436;DHT22;13363;52.772;-3.890;2022-10-16T17:28:12;14.50;99.90
25436;DHT22;13363;52.772;-3.890;2022-10-16T17:30:40;14.50;99.90
25436;DHT22;13363;52.772;-3.890;2022-10-16T17:33:06;14.40;99.90
25436;DHT22;13363;52.772;-3.890;2022-10-16T17:35:43;14.30;99.90
25436;DHT22;13363;52.772;-3.890;2022-10-16T17:38:10;14.30;99.90
25436;DHT22;13363;52.772;-3.890;2022-10-16T17:40:37;14.40;99.90
25436;DHT22;13363;52.772;-3.890;2022-10-16T17:43:03;14.40;99.90
25436;DHT22;13363;52.772;-3.890;2022-10-16T17:45:29;14.40;99.90
25436;DHT22;13363;52.772;-3.890;2022-10-16T17:47:57;14.40;99.90
25436;DHT22;13363;52.772;-3.890;2022-10-16T17:50:23;14.50;99.90
25436;DHT22;13363;52.772;-3.890;2022-10-16T17:52:49;14.60;99.90
25436;DHT22;13363;52.772;-3.890;2022-10-16T17:55:15;14.60;99.90
25436;DHT22;13363;52.772;-3.890;2022-10-16T17:57:43;14.60;99.90
25436;DHT22;13363;52.772;-3.890;2022-10-16T18:00:10;14.70;99.90
25436;DHT22;13363;52.772;-3.890;2022-10-16T18:02:36;14.70;99.90
25436;DHT22;13363;52.772;-3.890;2022-10-16T18:05:25;14.70;99.90
25436;DHT22;13363;52.772;-3.890;2022-10-16T18:07:51;14.70;99.90
25436;DHT22;13363;52.772;-3.890;2022-10-16T18:10:17;14.90;99.90
25436;DHT22;13363;52.772;-3.890;2022-10-16T18:12:43;14.80;99.90
25436;DHT22;13363;52.772;-3.890;2022-10-16T18:15:09;14.70;99.90
25436;DHT22;13363;52.772;-3.890;2022-10-16T18:17:36;14.60;99.90
25436;DHT22;13363;52.772;-3.890;2022-10-16T18:20:06;14.60;99.90
25436;DHT22;13363;52.772;-3.890;2022-10-16T18:22:33;14.60;99.90
25436;DHT22;13363;52.772;-3.890;2022-10-16T18:25:04;14.70;99.90
25436;DHT22;13363;52.772;-3.890;2022-10-16T18:27:31;14.50;99.90
25436;DHT22;13363;52.772;-3.890;2022-10-16T18:29:57;14.50;99.90
25436;DHT22;13363;52.772;-3.890;2022-10-16T18:32:25;14.30;99.90
25436;DHT22;13363;52.772;-3.890;2022-10-16T18:34:51;14.20;99.90
25436;DHT22;13363;52.772;-3.890;2022-10-16T18:37:18;14.10;99.90
25436;DHT22;13363;52.772;-3.890;2022-10-16T18:39:48;14.10;99.90
25436;DHT22;13363;52.772;-3.890;2022-10-16T18:42:17;14.00;99.90
25436;DHT22;13363;52.772;-3.890;2022-10-16T18:44:43;13.90;99.90
25436;DHT22;13363;52.772;-3.890;2022-10-16T18:47:09;13.90;99.90
25436;DHT22;13363;52.772;-3.890;2022-10-16T18:49:34;13.90;99.90
25436;DHT22;13363;52.772;-3.890;2022-10-16T18:52:00;13.80;99.90
25436;DHT22;13363;52.772;-3.890;2022-10-16T18:54:28;13.80;99.90
25436;DHT22;13363;52.772;-3.890;2022-10-16T18:56:55;13.70;99.90
25436;DHT22;13363;52.772;-3.890;2022-10-16T18:59:21;13.80;99.90
25436;DHT22;13363;52.772;-3.890;2022-10-16T19:01:48;13.80;99.90
25436;DHT22;13363;52.772;-3.890;2022-10-16T19:04:15;13.70;99.90
25436;DHT22;13363;52.772;-3.890;2022-10-16T19:06:46;13.70;99.90
25436;DHT22;13363;52.772;-3.890;2022-10-16T19:09:14;13.70;99.90
25436;DHT22;13363;52.772;-3.890;2022-10-16T19:11:40;13.70;99.90
25436;DHT22;13363;52.772;-3.890;2022-10-16T19:14:06;13.70;99.90
25436;DHT22;13363;52.772;-3.890;2022-10-16T19:16:34;13.70;99.90
25436;DHT22;13363;52.772;-3.890;2022-10-16T19:19:02;13.80;99.90
25436;DHT22;13363;52.772;-3.890;2022-10-16T19:21:29;13.80;99.90
25436;DHT22;13363;52.772;-3.890;2022-10-16T19:24:00;13.80;99.90
25436;DHT22;13363;52.772;-3.890;2022-10-16T19:26:28;14.00;99.90
25436;DHT22;13363;52.772;-3.890;2022-10-16T19:28:56;14.00;99.90
25436;DHT22;13363;52.772;-3.890;2022-10-16T19:31:24;14.10;99.90
25436;DHT22;13363;52.772;-3.890;2022-10-16T19:33:55;14.20;99.90
25436;DHT22;13363;52.772;-3.890;2022-10-16T19:36:30;14.20;99.90
25436;DHT22;13363;52.772;-3.890;2022-10-16T19:39:02;14.20;99.90
25436;DHT22;13363;52.772;-3.890;2022-10-16T19:41:29;14.20;99.90
25436;DHT22;13363;52.772;-3.890;2022-10-16T19:44:02;14.20;99.90
25436;DHT22;13363;52.772;-3.890;2022-10-16T19:46:30;14.20;99.90
25436;DHT22;13363;52.772;-3.890;2022-10-16T19:48:58;14.20;99.90
25436;DHT22;13363;52.772;-3.890;2022-10-16T19:51:26;14.30;99.90
25436;DHT22;13363;52.772;-3.890;2022-10-16T19:53:55;14.40;99.90
25436;DHT22;13363;52.772;-3.890;2022-10-16T19:56:23;14.50;99.90
25436;DHT22;13363;52.772;-3.890;2022-10-16T19:58:50;14.50;99.90
25436;DHT22;13363;52.772;-3.890;2022-10-16T20:01:17;14.40;99.90
25436;DHT22;13363;52.772;-3.890;2022-10-16T20:03:44;14.40;99.90
25436;DHT22;13363;52.772;-3.890;2022-10-16T20:06:11;14.40;99.90
25436;DHT22;13363;52.772;-3.890;2022-10-16T20:08:38;14.50;99.90
25436;DHT22;13363;52.772;-3.890;2022-10-16T20:11:08;14.50;99.90
25436;DHT22;13363;52.772;-3.890;2022-10-16T20:13:34;14.50;99.90
25436;DHT22;13363;52.772;-3.890;2022-10-16T20:16:02;14.50;99.90
25436;DHT22;13363;52.772;-3.890;2022-10-16T20:18:28;14.50;99.90
25436;DHT22;13363;52.772;-3.890;2022-10-16T20:20:54;14.40;99.90
25436;DHT22;13363;52.772;-3.890;2022-10-16T20:23:20;14.40;99.90
25436;DHT22;13363;52.772;-3.890;2022-10-16T20:25:48;14.40;99.90
25436;DHT22;13363;52.772;-3.890;2022-10-16T20:28:17;14.40;99.90
25436;DHT22;13363;52.772;-3.890;2022-10-16T20:30:46;14.40;99.90
25436;DHT22;13363;52.772;-3.890;2022-10-16T20:33:13;14.30;99.90
25436;DHT22;13363;52.772;-3.890;2022-10-16T20:35:49;14.30;99.90
25436;DHT22;13363;52.772;-3.890;2022-10-16T20:38:17;14.30;99.90
25436;DHT22;13363;52.772;-3.890;2022-10-16T20:40:46;14.20;99.90
25436;DHT22;13363;52.772;-3.890;2022-10-16T20:43:15;14.30;99.90
25436;DHT22;13363;52.772;-3.890;2022-10-16T20:45:42;14.30;99.90
25436;DHT22;13363;52.772;-3.890;2022-10-16T20:48:08;14.20;99.90
25436;DHT22;13363;52.772;-3.890;2022-10-16T20:50:36;14.10;99.90
25436;DHT22;13363;52.772;-3.890;2022-10-16T20:53:02;14.10;99.90
25436;DHT22;13363;52.772;-3.890;2022-10-16T20:55:28;14.10;99.90
25436;DHT22;13363;52.772;-3.890;2022-10-16T20:57:54;14.10;99.90
25436;DHT22;13363;52.772;-3.890;2022-10-16T21:00:21;14.10;99.90
25436;DHT22;13363;52.772;-3.890;2022-10-16T21:02:51;14.00;99.90
25436;DHT22;13363;52.772;-3.890;2022-10-16T21:05:17;14.00;99.90
25436;DHT22;13363;52.772;-3.890;2022-10-16T21:07:43;14.00;99.90
25436;DHT22;13363;52.772;-3.890;2022-10-16T21:10:10;14.30;99.90
25436;DHT22;13363;52.772;-3.890;2022-10-16T21:12:36;14.30;99.90
25436;DHT22;13363;52.772;-3.890;2022-10-16T21:15:02;14.20;99.90
25436;DHT22;13363;52.772;-3.890;2022-10-16T21:17:30;14.20;99.90
25436;DHT22;13363;52.772;-3.890;2022-10-16T21:19:56;14.10;99.90
25436;DHT22;13363;52.772;-3.890;2022-10-16T21:22:22;14.10;99.90
25436;DHT22;13363;52.772;-3.890;2022-10-16T21:24:48;14.10;99.90
25436;DHT22;13363;52.772;-3.890;2022-10-16T21:27:14;14.10;99.90
25436;DHT22;13363;52.772;-3.890;2022-10-16T21:29:40;14.10;99.90
25436;DHT22;13363;52.772;-3.890;2022-10-16T21:32:06;14.00;99.90
25436;DHT22;13363;52.772;-3.890;2022-10-16T21:34:33;14.10;99.90
25436;DHT22;13363;52.772;-3.890;2022-10-16T21:36:59;14.10;99.90
25436;DHT22;13363;52.772;-3.890;2022-10-16T21:39:25;14.00;99.90
25436;DHT22;13363;52.772;-3.890;2022-10-16T21:41:51;14.00;99.90
25436;DHT22;13363;52.772;-3.890;2022-10-16T21:44:17;13.90;99.90
25436;DHT22;13363;52.772;-3.890;2022-10-16T21:46:45;14.00;99.90
25436;DHT22;13363;52.772;-3.890;2022-10-16T21:49:17;14.00;99.90
25436;DHT22;13363;52.772;-3.890;2022-10-16T21:51:46;14.00;99.90
25436;DHT22;13363;52.772;-3.890;2022-10-16T21:54:15;14.00;99.90
25436;DHT22;13363;52.772;-3.890;2022-10-16T21:56:41;14.10;99.90
25436;DHT22;13363;52.772;-3.890;2022-10-16T21:59:08;14.10;99.90
25436;DHT22;13363;52.772;-3.890;2022-10-16T22:01:34;14.00;99.90
25436;DHT22;13363;52.772;-3.890;2022-10-16T22:04:00;14.00;99.90
25436;DHT22;13363;52.772;-3.890;2022-10-16T22:06:27;14.10;99.90
25436;DHT22;13363;52.772;-3.890;2022-10-16T22:08:56;14.10;99.90
25436;DHT22;13363;52.772;-3.890;2022-10-16T22:11:35;14.10;99.90
25436;DHT22;13363;52.772;-3.890;2022-10-16T22:14:07;14.40;99.90
25436;DHT22;13363;52.772;-3.890;2022-10-16T22:16:34;14.40;99.90
25436;DHT22;13363;52.772;-3.890;2022-10-16T22:19:00;14.40;99.90
25436;DHT22;13363;52.772;-3.890;2022-10-16T22:21:28;14.30;99.90
25436;DHT22;13363;52.772;-3.890;2022-10-16T22:23:58;14.50;99.90
25436;DHT22;13363;52.772;-3.890;2022-10-16T22:26:24;14.60;99.90
25436;DHT22;13363;52.772;-3.890;2022-10-16T22:28:50;14.70;99.90
25436;DHT22;13363;52.772;-3.890;2022-10-16T22:31:16;14.80;99.90
25436;DHT22;13363;52.772;-3.890;2022-10-16T22:33:43;15.30;99.90
25436;DHT22;13363;52.772;-3.890;2022-10-16T22:36:11;15.40;99.90
25436;DHT22;13363;52.772;-3.890;2022-10-16T22:38:38;15.90;99.90
25436;DHT22;13363;52.772;-3.890;2022-10-16T22:41:09;16.00;99.90
25436;DHT22;13363;52.772;-3.890;2022-10-16T22:43:39;16.10;99.90
25436;DHT22;13363;52.772;-3.890;2022-10-16T22:46:09;16.40;99.90
25436;DHT22;13363;52.772;-3.890;2022-10-16T22:48:36;16.50;99.90
25436;DHT22;13363;52.772;-3.890;2022-10-16T22:51:04;16.60;99.90
25436;DHT22;13363;52.772;-3.890;2022-10-16T22:53:30;16.70;99.90
25436;DHT22;13363;52.772;-3.890;2022-10-16T22:55:56;16.70;99.90
25436;DHT22;13363;52.772;-3.890;2022-10-16T22:58:21;16.70;99.90
25436;DHT22;13363;52.772;-3.890;2022-10-16T23:00:47;16.80;99.90
25436;DHT22;13363;52.772;-3.890;2022-10-16T23:03:13;16.90;99.90
25436;DHT22;13363;52.772;-3.890;2022-10-16T23:05:40;16.90;99.90
25436;DHT22;13363;52.772;-3.890;2022-10-16T23:08:06;17.00;99.90
25436;DHT22;13363;52.772;-3.890;2022-10-16T23:10:33;17.00;99.90
25436;DHT22;13363;52.772;-3.890;2022-10-16T23:12:59;16.90;99.90
25436;DHT22;13363;52.772;-3.890;2022-10-16T23:15:25;17.00;99.90
25436;DHT22;13363;52.772;-3.890;2022-10-16T23:17:51;17.00;99.90
25436;DHT22;13363;52.772;-3.890;2022-10-16T23:20:17;17.00;99.90
25436;DHT22;13363;52.772;-3.890;2022-10-16T23:22:42;17.00;99.90
25436;DHT22;13363;52.772;-3.890;2022-10-16T23:25:08;16.80;99.90
25436;DHT22;13363;52.772;-3.890;2022-10-16T23:27:34;16.50;99.90
25436;DHT22;13363;52.772;-3.890;2022-10-16T23:30:00;16.00;99.90
25436;DHT22;13363;52.772;-3.890;2022-10-16T23:32:26;15.80;99.90
25436;DHT22;13363;52.772;-3.890;2022-10-16T23:34:52;15.70;99.90
25436;DHT22;13363;52.772;-3.890;2022-10-16T23:37:17;15.60;99.90
25436;DHT22;13363;52.772;-3.890;2022-10-16T23:39:43;15.50;99.90
25436;DHT22;13363;52.772;-3.890;2022-10-16T23:42:09;15.50;99.90
25436;DHT22;13363;52.772;-3.890;2022-10-16T23:44:35;15.40;99.90
25436;DHT22;13363;52.772;-3.890;2022-10-16T23:47:01;15.40;99.90
25436;DHT22;13363;52.772;-3.890;2022-10-16T23:49:28;15.40;99.90
25436;DHT22;13363;52.772;-3.890;2022-10-16T23:51:54;15.40;99.90
25436;DHT22;13363;52.772;-3.890;2022-10-16T23:54:20;15.30;99.90
25436;DHT22;13363;52.772;-3.890;2022-10-16T23:56:45;15.30;99.90
25436;DHT22;13363;52.772;-3.890;2022-10-16T23:59:11;15.20;99.90
